Nearby METAR Reports

 

LEXJ - Santander/Paraya, Spain
Distancia a la estación: ESE 6km
Actualizado: 18/06/2018 09:30
Parcialmente nuboso
Parcialmente nuboso
 Viento del SO
Viento: SO 9 km/h
Temperatura: 18°C
Rocío: 15°C
Humedad: 83%
Barómetro: 1027 hPa
Nubes: Parcialmente nuboso
Visibilidad: 10 km
Detalle Nubes: Nubes dispersas 853 m
Parcialmente nuboso 1158 m
2018/06/18 07:30 LEXJ 180730Z 23005KT 190V260 9999 FEW028 SCT038 18/15 Q1027
LEBB - Bilbao/Sondica, Spain
Distancia a la estación: ESE 80km
Actualizado: 18/06/2018 09:30
Muy nuboso
Muy nuboso
 Viento del varies
Viento: varies 2 km/h
Temperatura: 18°C
Rocío: 15°C
Humedad: 83%
Barómetro: 1027 hPa
Nubes: Muy nuboso
Visibilidad: 10 km
Detalle Nubes: Nubes dispersas 549 m
Muy nuboso 914 m
2018/06/18 07:30 LEBB 180730Z VRB01KT 9999 FEW018 BKN030 18/15 Q1027 NOSIG
 
LEZG - Zaragoza (mil/Ci, Spain
Distancia a la estación: NNE 176km
Actualizado: 18/06/2018 09:30
Nubes dispersas
Nubes dispersas
 Viento del NO
Viento: NO 37 km/h, Racha: 56 km/h
Temperatura: 20°C
Rocío: 11°C
Humedad: 56%
Barómetro: 1023 hPa
Nubes: Nubes dispersas
Visibilidad: 10 km
Detalle Nubes: Nubes dispersas 1372 m
2018/06/18 07:30 LEZG 180730Z 31020G30KT 9999 FEW045 20/11 Q1023
LEVT - Vitoria, Spain
Distancia a la estación: ESE 114km
Actualizado: 18/06/2018 09:30
Muy nuboso
Muy nuboso
 Viento del calm
Viento: Calma
Temperatura: 13°C
Rocío: 11°C
Humedad: 88%
Barómetro: 1028 hPa
Nubes: Muy nuboso
Visibilidad: 10 km
Detalle Nubes: Nubes dispersas 610 m
Muy nuboso 914 m
2018/06/18 07:30 LEVT 180730Z 00000KT 9999 FEW020 BKN030 13/11 Q1028
 
LEBG - Burgos/Villafria, Spain
Distancia a la estación: S 122km
Actualizado: 18/06/2018 09:30
Nubes dispersas
Nubes dispersas
 Viento del NE
Viento: NE 15 km/h
Temperatura: 15°C
Rocío: 9°C
Humedad: 68%
Barómetro: 1028 hPa
Nubes: Nubes dispersas
Visibilidad: 10 km
Detalle Nubes: Nubes dispersas 1402 m
2018/06/18 07:30 LEBG 180730Z 05008KT 020V080 9999 FEW046 15/09 Q1028
LELO - Logrono/Agoncill, Spain
Distancia a la estación: SE 169km
Actualizado: 18/06/2018 09:00
Parcialmente nuboso
Parcialmente nuboso
 Viento del O
Viento: O 22 km/h
Temperatura: 17°C
Rocío: 10°C
Humedad: 64%
Barómetro: 1026 hPa
Nubes: Parcialmente nuboso
Visibilidad: 10 km
Detalle Nubes: Nubes dispersas 914 m
Parcialmente nuboso 1219 m
2018/06/18 07:00 LELO 180700Z 28012KT 9999 FEW030 SCT040 17/10 Q1026
 
LESO - San Sebastian/Fu, Spain
Distancia a la estación: E 169km
Actualizado: 18/06/2018 09:30
Cubierto
Cubierto
 Viento del OSO
Viento: OSO 9 km/h
Temperatura: 17°C
Rocío: 14°C
Humedad: 83%
Barómetro: 1027 hPa
Nubes: Cubierto
Visibilidad: 10 km
Detalle Nubes: Cubierto 671 m
2018/06/18 07:30 LESO 180730Z 24005KT 200V280 9999 OVC022 17/14 Q1027
LEAS - Asturias/Aviles, Spain
Distancia a la estación: O 172km
Actualizado: 18/06/2018 09:30
Muy nuboso
Muy nuboso
 Viento del SO
Viento: SO 7 km/h
Temperatura: 17°C
Rocío: 14°C
Humedad: 83%
Barómetro: 1028 hPa
Nubes: Muy nuboso
Visibilidad: 10 km
Detalle Nubes: Nubes dispersas 427 m
Muy nuboso 579 m
2018/06/18 07:30 LEAS 180730Z 22004KT 9999 FEW014 BKN019 17/14 Q1028 NOSIG
 
LELN - Leon/Virgen Cami, Spain
Distancia a la estación: SO 174km
Actualizado: 18/06/2018 09:00
Despejado
Despejado
 Viento del calm
Viento: Calma
Temperatura: 16°C
Rocío: 9°C
Humedad: 63%
Barómetro: 1027 hPa
Resumen: Despejado
Visibilidad: greater than 10 km
2018/06/18 07:00 LELN 180700Z 00000KT CAVOK 16/09 Q1027
LFBZ - Biarritz/Anglet, France
Distancia a la estación: E 191km
Actualizado: 18/06/2018 09:30
Cubierto
Cubierto
 Viento del varies
Viento: varies 4 km/h
Temperatura: 17°C
Rocío: 15°C
Humedad: 88%
Barómetro: 1027 hPa
Nubes: Cubierto
Visibilidad: 10 km
Detalle Nubes: Muy nuboso 457 m
Cubierto 640 m
2018/06/18 07:30 LFBZ 180730Z AUTO VRB02KT 9999 // BKN015 OVC021 17/15 Q1027
 
LEPP - Pamplona/Noain, Spain
Distancia a la estación: ESE 199km
Actualizado: 18/06/2018 09:30
Nubes dispersas
Nubes dispersas
 Viento del NNO
Viento: NNO 17 km/h
Temperatura: 17°C
Rocío: 11°C
Humedad: 68%
Barómetro: 1026 hPa
Nubes: Nubes dispersas
Visibilidad: 10 km
Detalle Nubes: Nubes dispersas 1158 m
2018/06/18 07:30 LEPP 180730Z 33009KT 300V360 9999 FEW038 17/11 Q1026
LEBL - Barcelona Airpor, Spain
Distancia a la estación: ESE 554km
Actualizado: 18/06/2018 09:30
Nubes dispersas
Nubes dispersas
 Viento del NO
Viento: NO 11 km/h
Temperatura: 23°C
Rocío: 17°C
Humedad: 69%
Barómetro: 1021 hPa
Nubes: Nubes dispersas
Visibilidad: 10 km
Detalle Nubes: Nubes dispersas 671 m
2018/06/18 07:30 LEBL 180730Z 32006KT 250V360 9999 FEW022 23/17 Q1021 NOSIG
 
LEMD - Madrid/Barajas, Spain
Distancia a la estación: S 325km
Actualizado: 18/06/2018 09:30
Despejado
Despejado
 Viento del NE
Viento: NE 11 km/h
Temperatura: 22°C
Rocío: 10°C
Humedad: 47%
Barómetro: 1023 hPa
Resumen: Despejado
Visibilidad: greater than 10 km
2018/06/18 07:30 LEMD 180730Z 05006KT 010V080 CAVOK 22/10 Q1023 NOSIG
LPPT - Lisbon/Portela, Portugal
Distancia a la estación: SO 663km
Actualizado: 18/06/2018 09:30
Despejado
Despejado
 Viento del NNE
Viento: NNE 17 km/h
Temperatura: 27°C
Rocío: 12°C
Humedad: 39%
Barómetro: 1018 hPa
Resumen: Despejado
Visibilidad: greater than 10 km
2018/06/18 07:30 LPPT 180730Z 03009KT CAVOK 27/12 Q1018
 
LECO - La Coruna/Alvedr, Spain
Distancia a la estación: O 349km
Actualizado: 18/06/2018 09:30
Muy nuboso
Muy nuboso
 Viento del N
Viento: N 6 km/h
Temperatura: 17°C
Rocío: 15°C
Humedad: 88%
Barómetro: 1027 hPa
Nubes: Muy nuboso
Visibilidad: 10 km
Detalle Nubes: Nubes dispersas 183 m
Muy nuboso 366 m
2018/06/18 07:30 LECO 180730Z 36003KT 290V070 9999 FEW006 BKN012 17/15 Q1027 NOSIG
LEST - Santiago/Labacol, Spain
Distancia a la estación: O 358km
Actualizado: 18/06/2018 09:30
Parcialmente nuboso
Parcialmente nuboso
 Viento del ENE
Viento: ENE 13 km/h
Temperatura: 16°C
Rocío: 14°C
Humedad: 88%
Barómetro: 1026 hPa
Nubes: Parcialmente nuboso
Visibilidad: 10 km
Detalle Nubes: Parcialmente nuboso 213 m
2018/06/18 07:30 LEST 180730Z 06007KT 020V100 9999 SCT007 16/14 Q1026 NOSIG